Time;durP1;ratioP1;P1;durP2;ratioP2;P2;SDS_P1;SDS_P2;PMS_P1;PMS_P2;Temp;Humidity;BMP_temperature;BMP_pressure;BME280_temperature;BME280_humidity;BME280_pressure;Samples;Min_cycle;Max_cycle;Signal;HPM_P1;HPM_P2
2023/07/01 00:01:49;;;;;;;5.35;1.92;;;;;;;22.51;46.61;100748.44;5017943;28;20116;-44
2023/07/01 00:04:15;;;;;;;5.35;1.77;;;;;;;22.49;46.98;100740.47;5022828;28;20061;-47
2023/07/01 00:06:43;;;;;;;5.68;2.55;;;;;;;22.49;46.65;100736.94;5015823;28;20025;-46
2023/07/01 00:09:12;;;;;;;6.32;2.05;;;;;;;22.49;46.67;100735.06;5013483;28;20038;-46
2023/07/01 00:11:38;;;;;;;4.28;1.67;;;;;;;22.49;46.62;100726.06;5022094;28;20448;-45
2023/07/01 00:14:04;;;;;;;5.93;1.92;;;;;;;22.49;47.23;100726.06;5020183;28;20045;-45
2023/07/01 00:16:30;;;;;;;2.30;1.52;;;;;;;22.49;47.24;100716.06;5016270;28;20797;-45
2023/07/01 00:18:55;;;;;;;2.50;1.50;;;;;;;22.48;47.80;100717.06;5018271;28;20058;-45
2023/07/01 00:21:20;;;;;;;2.90;1.60;;;;;;;22.51;47.10;100715.88;5018145;28;20037;-44
2023/07/01 00:23:46;;;;;;;1.80;1.52;;;;;;;22.50;47.42;100712.31;5014619;28;20042;-45
2023/07/01 00:26:11;;;;;;;4.10;2.22;;;;;;;22.50;46.85;100711.47;5017484;28;20396;-45
2023/07/01 00:28:37;;;;;;;3.50;1.90;;;;;;;22.50;47.04;100706.88;5014593;28;20464;-47
2023/07/01 00:31:02;;;;;;;4.20;1.73;;;;;;;22.50;47.46;100700.63;5014614;28;20057;-44
2023/07/01 00:33:27;;;;;;;5.05;1.73;;;;;;;22.51;47.83;100703.16;5013018;28;20038;-46
2023/07/01 00:35:53;;;;;;;4.47;2.05;;;;;;;22.51;47.60;100697.72;5020261;28;20096;-45
2023/07/01 00:38:18;;;;;;;4.15;1.52;;;;;;;22.51;47.54;100686.88;5022019;28;20042;-45
2023/07/01 00:40:44;;;;;;;2.60;1.67;;;;;;;22.50;47.01;100696.03;5022799;28;20471;-44
2023/07/01 00:43:09;;;;;;;4.10;1.77;;;;;;;22.50;47.15;100685.16;5018070;28;20046;-43
2023/07/01 00:45:35;;;;;;;4.93;2.05;;;;;;;22.50;46.99;100684.34;5020637;28;20448;-44
2023/07/01 00:48:00;;;;;;;4.43;1.55;;;;;;;22.50;47.13;100673.47;5018674;28;20088;-48
2023/07/01 00:50:25;;;;;;;2.17;1.55;;;;;;;22.50;47.49;100670.78;5022311;28;20054;-44
2023/07/01 00:52:51;;;;;;;2.70;1.52;;;;;;;22.48;47.58;100670.94;5018329;28;20029;-45
2023/07/01 00:55:16;;;;;;;1.95;1.60;;;;;;;22.49;47.47;100669.94;5017118;28;20092;-44
2023/07/01 00:57:42;;;;;;;3.35;1.65;;;;;;;22.49;47.29;100677.25;5022082;28;20460;-44
2023/07/01 01:00:10;;;;;;;4.53;1.63;;;;;;;22.47;47.35;100669.28;5030381;28;20041;-43
2023/07/01 01:03:21;;;;;;;3.28;1.80;;;;;;;22.51;47.76;100670.59;5014492;28;20028;-44
2023/07/01 01:06:00;;;;;;;1.83;1.10;;;;;;;22.50;47.68;100665.34;5019564;28;20479;-45
2023/07/01 01:08:43;;;;;;;3.53;1.58;;;;;;;22.47;47.36;100663.84;5022942;28;20399;-44
2023/07/01 01:11:11;;;;;;;3.42;1.83;;;;;;;22.48;47.35;100664.69;5021095;28;20104;-44
2023/07/01 01:13:38;;;;;;;6.60;2.20;;;;;;;22.47;47.29;100657.59;5021013;28;20241;-44
2023/07/01 01:16:04;;;;;;;5.13;2.22;;;;;;;22.46;47.36;100651.28;5014433;28;20117;-48
2023/07/01 01:18:32;;;;;;;3.42;1.58;;;;;;;22.45;47.03;100646.91;5020360;28;20058;-46
2023/07/01 01:20:58;;;;;;;2.65;1.63;;;;;;;22.47;47.35;100644.03;5016319;28;20030;-46
2023/07/01 01:23:32;;;;;;;3.65;1.55;;;;;;;22.45;47.55;100645.03;5014365;28;20037;-44
2023/07/01 01:26:07;;;;;;;3.67;1.50;;;;;;;22.47;47.75;100646.72;5019291;28;20029;-44
2023/07/01 01:28:36;;;;;;;5.22;1.70;;;;;;;22.45;47.43;100634.19;5020634;28;20104;-47
2023/07/01 01:31:02;;;;;;;4.57;1.92;;;;;;;22.44;47.53;100637.91;5015414;28;20033;-45
2023/07/01 01:33:28;;;;;;;3.70;1.60;;;;;;;22.46;47.22;100635.00;5020759;28;20428;-44
2023/07/01 01:36:00;;;;;;;3.47;1.77;;;;;;;22.44;47.46;100631.63;5015626;28;20037;-43
2023/07/01 01:38:32;;;;;;;3.92;1.63;;;;;;;22.43;47.56;100630.81;5018509;28;20467;-44
2023/07/01 01:41:04;;;;;;;2.67;1.60;;;;;;;22.43;47.47;100629.97;5015144;28;20026;-47
2023/07/01 01:43:42;;;;;;;3.85;2.08;;;;;;;22.43;47.38;100625.38;5016827;28;20033;-45
2023/07/01 01:46:08;;;;;;;2.58;1.90;;;;;;;22.43;47.90;100613.69;5019661;28;20033;-44
2023/07/01 01:48:35;;;;;;;5.05;1.70;;;;;;;22.43;47.98;100619.13;5019015;28;20033;-47
2023/07/01 01:51:02;;;;;;;2.78;1.63;;;;;;;22.43;47.84;100619.13;5017851;28;20044;-46
2023/07/01 01:53:29;;;;;;;3.22;1.50;;;;;;;22.42;47.45;100617.41;5019014;28;20476;-44
2023/07/01 01:55:56;;;;;;;2.40;1.75;;;;;;;22.44;48.01;100615.38;5024922;28;20040;-45
2023/07/01 01:58:22;;;;;;;6.53;1.73;;;;;;;22.42;47.83;100614.69;5018039;28;20460;-43
2023/07/01 02:00:47;;;;;;;2.63;1.63;;;;;;;22.42;47.89;100615.53;5016146;28;20037;-43
2023/07/01 02:03:13;;;;;;;2.75;1.70;;;;;;;22.42;47.56;100603.84;5014915;28;20534;-43
2023/07/01 02:05:39;;;;;;;3.15;2.15;;;;;;;22.42;47.69;100606.56;5015972;28;20021;-45
2023/07/01 02:08:04;;;;;;;3.42;1.83;;;;;;;22.42;47.83;100601.97;5017741;28;20464;-45
2023/07/01 02:10:32;;;;;;;3.10;1.60;;;;;;;22.42;48.03;100601.13;5012802;28;20088;-47
2023/07/01 02:12:58;;;;;;;4.15;2.00;;;;;;;22.41;47.79;100600.31;5023861;28;20514;-46
2023/07/01 02:15:23;;;;;;;3.28;1.67;;;;;;;22.41;47.87;100588.63;5018264;28;20034;-43
2023/07/01 02:17:48;;;;;;;3.78;1.92;;;;;;;22.43;48.33;100597.41;5017812;28;20028;-44
2023/07/01 02:20:14;;;;;;;2.47;1.55;;;;;;;22.43;48.51;100592.00;5019432;28;20077;-46
2023/07/01 02:22:39;;;;;;;2.25;1.70;;;;;;;22.43;48.60;100586.56;5017094;28;20065;-43
2023/07/01 02:25:05;;;;;;;4.43;1.83;;;;;;;22.43;48.37;100581.13;5013711;28;20028;-43
2023/07/01 02:27:31;;;;;;;3.30;1.80;;;;;;;22.42;48.63;100585.69;5019419;28;20045;-46
2023/07/01 02:29:57;;;;;;;4.88;1.90;;;;;;;22.43;48.81;100578.44;5020235;28;20029;-45
2023/07/01 02:32:23;;;;;;;2.95;1.83;;;;;;;22.41;48.82;100567.75;5014977;28;20049;-45
2023/07/01 02:34:49;;;;;;;4.47;2.00;;;;;;;22.41;48.33;100575.06;5017887;28;20391;-44
2023/07/01 02:37:14;;;;;;;3.97;1.98;;;;;;;22.42;48.80;100568.59;5017183;28;20455;-45
2023/07/01 02:39:39;;;;;;;3.88;1.75;;;;;;;22.40;48.73;100566.03;5017195;28;20040;-44
2023/07/01 02:42:05;;;;;;;4.45;1.73;;;;;;;22.41;48.61;100561.50;5017617;28;20030;-46
2023/07/01 02:44:31;;;;;;;4.43;2.00;;;;;;;22.41;49.11;100556.06;5015998;28;20405;-45
2023/07/01 02:46:56;;;;;;;3.75;1.80;;;;;;;22.43;49.23;100557.56;5018678;28;20120;-46
2023/07/01 02:49:22;;;;;;;2.55;1.92;;;;;;;22.43;49.40;100568.41;5020661;28;20033;-45
2023/07/01 02:51:47;;;;;;;5.30;1.70;;;;;;;22.44;49.58;100563.81;5018259;28;20030;-43
2023/07/01 02:54:12;;;;;;;2.63;1.48;;;;;;;22.43;50.25;100562.16;5019533;28;20442;-47
2023/07/01 02:56:38;;;;;;;5.30;1.92;;;;;;;22.43;49.99;100554.84;5021484;28;20018;-44
2023/07/01 02:59:03;;;;;;;2.83;2.00;;;;;;;22.42;49.95;100553.13;5015841;28;20081;-44
2023/07/01 03:01:29;;;;;;;4.93;2.40;;;;;;;22.42;50.24;100553.13;5018475;28;20037;-45
2023/07/01 03:03:55;;;;;;;4.32;2.05;;;;;;;22.42;50.40;100552.31;5017329;28;20404;-44
2023/07/01 03:06:21;;;;;;;2.75;1.60;;;;;;;22.41;50.10;100551.47;5021991;28;20026;-45
2023/07/01 03:08:46;;;;;;;4.22;2.17;;;;;;;22.42;49.94;100550.44;5018079;28;20125;-48
2023/07/01 03:11:11;;;;;;;3.22;1.80;;;;;;;22.43;50.33;100551.28;5023068;28;20033;-46
2023/07/01 03:13:37;;;;;;;2.70;1.90;;;;;;;22.42;50.81;100541.47;5022292;28;20033;-46
2023/07/01 03:16:06;;;;;;;3.67;1.50;;;;;;;22.41;50.28;100539.78;5015759;28;20509;-47
2023/07/01 03:18:34;;;;;;;3.05;1.70;;;;;;;22.42;50.76;100541.47;5019707;28;20040;-47
2023/07/01 03:21:00;;;;;;;2.25;1.50;;;;;;;22.42;50.63;100534.16;4979722;28;20485;-47
2023/07/01 03:23:29;;;;;;;6.60;1.73;;;;;;;22.42;50.62;100533.31;4977127;28;20097;-51
2023/07/01 03:25:55;;;;;;;2.70;1.70;;;;;;;22.42;50.55;100530.59;4986400;28;20050;-51
2023/07/01 03:28:21;;;;;;;4.18;1.70;;;;;;;22.42;50.64;100530.59;4982923;28;20049;-46
2023/07/01 03:30:46;;;;;;;2.28;1.50;;;;;;;22.42;50.92;100530.59;4980539;28;20244;-51
2023/07/01 03:33:12;;;;;;;4.07;1.63;;;;;;;22.41;51.14;100513.50;4981461;28;20086;-48
2023/07/01 03:35:38;;;;;;;3.05;1.50;;;;;;;22.41;51.60;100523.50;4980078;28;20030;-47
2023/07/01 03:38:04;;;;;;;2.97;1.67;;;;;;;22.41;51.92;100520.78;4978807;28;20030;-50
2023/07/01 03:40:30;;;;;;;2.83;1.33;;;;;;;22.41;51.73;100513.50;4981415;28;20110;-47
2023/07/01 03:42:56;;;;;;;1.70;1.30;;;;;;;22.40;51.67;100516.38;4982975;28;20022;-48
2023/07/01 03:45:22;;;;;;;3.83;1.65;;;;;;;22.41;52.08;100515.38;4975402;28;20038;-48
2023/07/01 03:47:48;;;;;;;5.07;1.85;;;;;;;22.41;52.20;100515.38;4987530;28;20062;-48
2023/07/01 03:50:14;;;;;;;2.13;1.70;;;;;;;22.40;52.10;100509.06;4983564;28;20076;-47
2023/07/01 03:52:40;;;;;;;2.25;1.58;;;;;;;22.40;52.54;100510.97;4981116;28;20495;-49
2023/07/01 03:55:07;;;;;;;2.88;1.70;;;;;;;22.40;52.59;100513.66;4980520;28;20030;-50
2023/07/01 03:57:33;;;;;;;2.70;1.80;;;;;;;22.40;52.59;100508.25;4977557;28;20066;-47
2023/07/01 03:59:59;;;;;;;2.72;1.20;;;;;;;22.39;52.37;100507.41;4982644;28;20389;-49
2023/07/01 04:02:25;;;;;;;2.05;1.27;;;;;;;22.39;52.25;100501.97;4979648;28;20034;-48
2023/07/01 04:04:51;;;;;;;1.63;1.40;;;;;;;22.40;53.16;100494.69;4980981;28;20104;-46
2023/07/01 04:07:17;;;;;;;1.92;1.23;;;;;;;22.38;53.08;100497.56;4985491;28;20045;-47
2023/07/01 04:09:43;;;;;;;2.55;1.58;;;;;;;22.38;53.34;100496.75;4976201;28;20381;-47
2023/07/01 04:12:08;;;;;;;2.88;1.50;;;;;;;22.38;53.21;100499.44;4978143;28;20034;-47
2023/07/01 04:14:34;;;;;;;2.33;1.23;;;;;;;22.38;53.85;100491.31;4985331;28;20439;-47
2023/07/01 04:17:00;;;;;;;3.13;1.60;;;;;;;22.37;53.82;100495.91;4980989;28;20035;-50
2023/07/01 04:19:25;;;;;;;5.75;1.63;;;;;;;22.38;52.99;100480.47;4997323;28;20046;-51
2023/07/01 04:21:50;;;;;;;4.28;1.65;;;;;;;22.37;53.61;100484.19;5021057;28;20022;-49
2023/07/01 04:24:16;;;;;;;3.40;1.50;;;;;;;22.37;53.57;100484.19;5022206;28;20364;-51
2023/07/01 04:26:43;;;;;;;1.50;1.30;;;;;;;22.37;53.82;100473.34;5023071;28;20383;-50
2023/07/01 04:29:09;;;;;;;1.98;1.60;;;;;;;22.36;53.93;100467.06;5018724;28;20032;-48
2023/07/01 04:31:35;;;;;;;1.73;1.40;;;;;;;22.36;54.05;100471.66;5022024;28;20026;-49
2023/07/01 04:34:00;;;;;;;1.40;1.25;;;;;;;22.36;54.61;100474.38;5018851;28;20043;-48
2023/07/01 04:36:25;;;;;;;2.10;1.50;;;;;;;22.36;54.00;100468.94;5018142;28;20037;-47
2023/07/01 04:38:51;;;;;;;2.42;1.58;;;;;;;22.35;54.57;100462.69;5015455;28;20061;-47
2023/07/01 04:41:16;;;;;;;3.10;1.50;;;;;;;22.36;54.50;100471.66;5014625;28;20030;-50
2023/07/01 04:43:41;;;;;;;1.52;1.30;;;;;;;22.35;54.15;100467.25;5024847;28;20048;-48
2023/07/01 04:46:07;;;;;;;1.52;1.40;;;;;;;22.35;54.18;100464.53;5014301;28;20034;-47
2023/07/01 04:48:33;;;;;;;2.03;1.42;;;;;;;22.34;54.59;100458.28;5016622;28;20068;-49
2023/07/01 04:50:58;;;;;;;1.83;1.20;;;;;;;22.34;54.72;100454.75;5018329;28;20026;-48
2023/07/01 04:53:23;;;;;;;1.58;1.30;;;;;;;22.35;55.13;100453.69;5015411;28;20041;-48
2023/07/01 04:55:49;;;;;;;2.22;1.50;;;;;;;22.35;54.66;100456.41;5023385;28;20160;-48
2023/07/01 04:58:14;;;;;;;2.50;1.25;;;;;;;22.35;55.26;100451.84;5020449;28;20037;-49
2023/07/01 05:00:40;;;;;;;1.63;1.30;;;;;;;22.34;54.97;100443.88;5019651;28;20036;-48
2023/07/01 05:03:06;;;;;;;2.28;1.20;;;;;;;22.35;54.69;100440.13;5021899;28;20057;-49
2023/07/01 05:05:31;;;;;;;1.42;1.30;;;;;;;22.34;54.85;100441.19;5027349;28;20541;-49
2023/07/01 05:07:57;;;;;;;2.55;1.05;;;;;;;22.34;55.37;100431.16;5014783;28;20617;-47
2023/07/01 05:10:22;;;;;;;1.38;1.13;;;;;;;22.35;55.39;100442.84;5016417;28;20042;-48
2023/07/01 05:12:49;;;;;;;1.60;1.23;;;;;;;22.34;55.30;100435.75;5015609;28;20030;-50
2023/07/01 05:15:15;;;;;;;2.17;1.13;;;;;;;22.34;55.35;100441.19;5019950;28;20115;-48
2023/07/01 05:17:40;;;;;;;2.25;1.15;;;;;;;22.33;55.27;100431.34;5022208;28;20144;-47
2023/07/01 05:20:06;;;;;;;1.27;1.00;;;;;;;22.33;55.18;100443.06;5022162;28;20056;-48
2023/07/01 05:22:32;;;;;;;1.30;1.10;;;;;;;22.33;55.39;100442.19;5020770;28;20110;-48
2023/07/01 05:24:57;;;;;;;2.45;1.00;;;;;;;22.34;55.42;100438.47;5022888;28;20159;-48
2023/07/01 05:27:22;;;;;;;1.77;1.00;;;;;;;22.33;56.17;100429.50;5016875;28;20388;-50
2023/07/01 05:29:48;;;;;;;1.20;1.05;;;;;;;22.32;55.94;100435.94;5025874;28;20036;-48
2023/07/01 05:32:13;;;;;;;0.90;0.90;;;;;;;22.32;55.86;100433.22;5017683;28;20380;-47
2023/07/01 05:34:38;;;;;;;1.13;0.98;;;;;;;22.33;55.85;100436.75;5024210;28;20516;-46
2023/07/01 05:37:04;;;;;;;1.95;1.25;;;;;;;22.32;55.80;100435.94;5020559;28;20038;-50
2023/07/01 05:39:30;;;;;;;2.10;0.98;;;;;;;22.32;55.68;100435.09;5019475;28;20038;-49
2023/07/01 05:41:55;;;;;;;1.58;1.00;;;;;;;22.33;56.04;100431.34;5021572;28;20476;-48
2023/07/01 05:44:21;;;;;;;1.55;0.85;;;;;;;22.33;56.02;100436.75;5020592;28;20033;-47
2023/07/01 05:46:46;;;;;;;1.27;1.10;;;;;;;22.34;56.09;100430.31;5019081;28;20045;-48
2023/07/01 05:49:12;;;;;;;1.23;1.13;;;;;;;22.35;55.65;100432.00;5019281;28;20108;-51
2023/07/01 05:51:37;;;;;;;2.30;1.20;;;;;;;22.36;55.64;100436.41;5020787;28;20038;-48
2023/07/01 05:54:03;;;;;;;1.80;1.00;;;;;;;22.35;56.05;100426.56;5019014;28;20491;-51
2023/07/01 05:56:30;;;;;;;2.28;1.10;;;;;;;22.36;56.37;100428.25;5024634;28;20476;-50
2023/07/01 05:58:55;;;;;;;2.40;1.20;;;;;;;22.35;56.60;100424.72;5021984;28;20029;-48
2023/07/01 06:01:21;;;;;;;4.68;1.10;;;;;;;22.36;56.38;100414.69;5015218;28;20045;-47
2023/07/01 06:03:46;;;;;;;2.75;0.90;;;;;;;22.34;56.96;100417.59;5017440;28;20026;-49
2023/07/01 06:06:12;;;;;;;1.33;0.88;;;;;;;22.34;56.74;100414.88;5019963;28;20041;-51
2023/07/01 06:08:37;;;;;;;1.80;1.25;;;;;;;22.34;56.52;100424.91;5014962;28;20072;-50
2023/07/01 06:11:02;;;;;;;1.20;0.90;;;;;;;22.33;56.41;100413.22;5016080;28;20033;-49
2023/07/01 06:13:28;;;;;;;2.92;1.13;;;;;;;22.33;57.22;100417.78;5019990;28;20037;-48
2023/07/01 06:15:53;;;;;;;6.40;1.08;;;;;;;22.32;57.07;100413.41;5024979;28;20033;-51
2023/07/01 06:18:19;;;;;;;1.05;0.98;;;;;;;22.32;56.94;100413.41;5024684;28;20044;-50
2023/07/01 06:20:44;;;;;;;3.60;1.02;;;;;;;22.31;57.53;100412.53;5025103;28;20124;-49
2023/07/01 06:23:09;;;;;;;2.95;0.90;;;;;;;22.31;57.70;100409.81;5025175;28;20114;-49
2023/07/01 06:25:35;;;;;;;4.32;1.00;;;;;;;22.29;57.50;100409.16;5020084;28;20510;-48
2023/07/01 06:28:00;;;;;;;4.45;1.10;;;;;;;22.29;57.46;100408.34;5017950;28;20077;-50
2023/07/01 06:30:25;;;;;;;3.60;1.00;;;;;;;22.29;57.91;100405.63;5015137;28;20029;-49
2023/07/01 06:32:52;;;;;;;1.23;0.90;;;;;;;22.28;57.79;100404.78;5016420;28;20034;-51
2023/07/01 06:35:17;;;;;;;1.55;1.27;;;;;;;22.29;57.71;100411.03;5018801;28;20029;-47
2023/07/01 06:37:43;;;;;;;2.13;0.90;;;;;;;22.29;57.54;100406.44;5027926;28;20412;-47
2023/07/01 06:40:08;;;;;;;1.58;0.98;;;;;;;22.29;57.17;100416.47;5019663;28;20076;-46
2023/07/01 06:42:35;;;;;;;2.15;0.95;;;;;;;22.29;57.24;100406.44;5018679;28;20038;-50
2023/07/01 06:45:00;;;;;;;1.45;0.80;;;;;;;22.27;57.48;100396.81;5019414;28;20029;-49
2023/07/01 06:47:26;;;;;;;2.30;1.02;;;;;;;22.28;57.75;100403.94;5018857;28;20030;-47
2023/07/01 06:49:51;;;;;;;2.15;1.00;;;;;;;22.28;57.85;100406.66;5023086;28;20410;-49
2023/07/01 06:52:17;;;;;;;1.30;0.80;;;;;;;22.25;57.37;100395.13;5015988;28;20041;-49
2023/07/01 06:54:42;;;;;;;0.93;0.70;;;;;;;22.28;57.50;100393.09;5013004;28;20041;-49
2023/07/01 06:57:07;;;;;;;1.88;0.90;;;;;;;22.27;57.93;100394.13;5017187;28;20041;-51
2023/07/01 06:59:33;;;;;;;1.40;0.88;;;;;;;22.28;57.60;100398.53;5019359;28;20085;-48
2023/07/01 07:01:58;;;;;;;1.60;1.08;;;;;;;22.28;58.10;100399.34;5019199;28;20350;-51
2023/07/01 07:04:23;;;;;;;3.92;0.75;;;;;;;22.27;57.86;100402.25;5014488;28;20034;-49
2023/07/01 07:06:49;;;;;;;4.28;1.02;;;;;;;22.27;57.97;100396.81;5026171;28;20029;-50
2023/07/01 07:09:15;;;;;;;2.28;1.10;;;;;;;22.24;58.73;100398.84;5018712;28;20092;-49
2023/07/01 07:11:41;;;;;;;2.75;1.17;;;;;;;22.23;58.93;100399.03;5020612;28;20058;-46
2023/07/01 07:14:06;;;;;;;2.17;0.90;;;;;;;22.23;59.16;100396.31;5016483;28;20131;-51
2023/07/01 07:16:34;;;;;;;2.13;0.90;;;;;;;22.21;59.21;100398.38;5012440;28;20495;-47
2023/07/01 07:19:00;;;;;;;4.22;1.13;;;;;;;22.18;59.51;100406.88;5019215;28;20086;-47
2023/07/01 07:21:26;;;;;;;6.18;0.90;;;;;;;22.16;59.48;100400.78;5017756;28;20494;-49
2023/07/01 07:23:51;;;;;;;1.58;0.90;;;;;;;22.14;59.91;100403.72;5023047;28;20021;-47
2023/07/01 07:26:17;;;;;;;4.03;1.00;;;;;;;22.11;59.71;100395.09;5012431;28;20041;-50
2023/07/01 07:28:42;;;;;;;2.15;0.80;;;;;;;22.09;59.96;100391.75;5011591;28;20117;-48
2023/07/01 07:31:07;;;;;;;2.25;0.88;;;;;;;22.08;59.61;100398.16;5015976;28;20041;-47
2023/07/01 07:33:33;;;;;;;3.42;0.90;;;;;;;22.07;60.08;100386.50;5014294;28;20025;-47
2023/07/01 07:35:58;;;;;;;2.33;1.13;;;;;;;22.08;60.14;100393.59;5012810;28;20096;-50
2023/07/01 07:38:23;;;;;;;1.65;1.00;;;;;;;22.09;59.47;100387.16;5019882;28;20037;-47
2023/07/01 07:40:49;;;;;;;1.65;0.70;;;;;;;22.08;59.63;100393.59;5022582;28;20034;-46
2023/07/01 07:43:14;;;;;;;0.85;0.80;;;;;;;22.09;59.94;100395.28;5018277;28;20038;-48
2023/07/01 07:45:40;;;;;;;2.78;1.13;;;;;;;22.09;59.77;100386.31;5011465;28;20109;-47
2023/07/01 07:48:06;;;;;;;2.00;1.08;;;;;;;22.08;60.29;100385.44;5022058;28;20112;-47
2023/07/01 07:50:33;;;;;;;2.85;1.17;;;;;;;22.07;59.86;100383.78;5030176;28;20029;-47
2023/07/01 07:52:59;;;;;;;6.32;1.17;;;;;;;22.08;59.94;100388.16;5018554;28;20044;-46
2023/07/01 07:55:26;;;;;;;2.85;1.08;;;;;;;22.08;60.23;100382.75;5018422;28;20040;-46
2023/07/01 07:57:51;;;;;;;3.25;0.73;;;;;;;22.09;60.99;100392.56;5020265;28;20034;-49
2023/07/01 08:00:17;;;;;;;4.40;1.38;;;;;;;22.08;61.51;100388.16;5018328;28;20092;-46
2023/07/01 08:02:46;;;;;;;3.22;1.30;;;;;;;22.07;61.14;100375.66;5024951;28;20036;-50
2023/07/01 08:05:18;;;;;;;3.13;1.38;;;;;;;22.07;60.98;100386.50;5015532;28;20125;-47
2023/07/01 08:07:47;;;;;;;1.13;1.00;;;;;;;22.03;61.87;100377.88;5017174;28;20052;-51
2023/07/01 08:10:12;;;;;;;3.03;1.10;;;;;;;22.03;62.12;100377.06;5015829;28;20026;-49
2023/07/01 08:12:37;;;;;;;1.63;1.20;;;;;;;22.01;62.00;100379.94;5023949;28;20083;-48
2023/07/01 08:15:04;;;;;;;0.93;0.70;;;;;;;22.02;62.36;100380.78;5017323;28;20061;-48
2023/07/01 08:17:29;;;;;;;1.33;0.88;;;;;;;22.02;62.00;100375.34;5018022;28;20552;-48
2023/07/01 08:19:54;;;;;;;0.90;0.90;;;;;;;22.01;62.28;100374.53;5014695;28;20054;-48
2023/07/01 08:22:20;;;;;;;2.30;1.20;;;;;;;22.02;62.34;100375.34;5016618;28;20021;-46
2023/07/01 08:24:45;;;;;;;1.75;0.88;;;;;;;22.00;62.95;100372.81;5014019;28;20444;-47
2023/07/01 08:27:11;;;;;;;2.63;1.30;;;;;;;22.01;62.74;100370.97;5017732;28;20033;-50
2023/07/01 08:29:36;;;;;;;1.10;1.00;;;;;;;22.02;62.48;100378.91;5018122;28;20120;-48
2023/07/01 08:32:02;;;;;;;2.72;0.80;;;;;;;22.00;62.88;100364.69;5021678;28;20034;-46
2023/07/01 08:34:28;;;;;;;5.05;0.90;;;;;;;22.01;62.78;100376.41;5022446;28;20120;-50
2023/07/01 08:36:53;;;;;;;3.55;1.40;;;;;;;22.01;63.00;100362.84;5016277;28;20061;-48
2023/07/01 08:39:19;;;;;;;4.53;1.00;;;;;;;22.02;62.87;100372.63;5018258;28;20050;-47
2023/07/01 08:41:52;;;;;;;1.27;0.93;;;;;;;22.02;62.67;100368.06;5016765;28;20030;-49
2023/07/01 08:44:21;;;;;;;3.08;0.68;;;;;;;22.04;62.46;100365.16;5021482;28;20033;-48
2023/07/01 08:46:52;;;;;;;1.50;0.70;;;;;;;22.00;62.78;100370.09;5018145;28;20439;-51
2023/07/01 08:49:21;;;;;;;2.78;0.80;;;;;;;22.01;62.90;100366.38;5018494;28;20029;-50
2023/07/01 08:51:48;;;;;;;3.53;0.65;;;;;;;21.99;63.90;100365.72;5017563;28;20789;-50
2023/07/01 08:54:16;;;;;;;0.93;0.77;;;;;;;21.97;63.46;100370.50;5013221;28;20444;-51
2023/07/01 08:56:41;;;;;;;0.70;0.70;;;;;;;21.96;63.60;100359.84;5014219;28;20026;-52
2023/07/01 08:59:07;;;;;;;0.95;0.50;;;;;;;21.94;63.83;100359.19;5018462;28;20045;-51
2023/07/01 09:01:33;;;;;;;0.88;0.80;;;;;;;21.96;64.28;100362.53;5021546;28;20036;-51
2023/07/01 09:04:00;;;;;;;1.02;0.70;;;;;;;21.94;64.81;100364.59;5017243;28;20439;-52
2023/07/01 09:06:26;;;;;;;2.70;1.00;;;;;;;21.94;64.81;100361.88;5020714;28;20107;-52
2023/07/01 09:08:51;;;;;;;2.92;0.82;;;;;;;21.93;64.54;100352.06;5015983;28;20069;-51
2023/07/01 09:11:18;;;;;;;2.08;0.80;;;;;;;21.86;65.20;100352.81;5020934;28;20033;-51
2023/07/01 09:13:44;;;;;;;1.38;0.50;;;;;;;21.88;65.36;100363.47;5024662;28;20126;-52
2023/07/01 09:16:09;;;;;;;1.65;0.60;;;;;;;21.88;64.66;100365.34;5018898;28;20113;-51
2023/07/01 09:18:35;;;;;;;1.45;0.50;;;;;;;21.88;65.57;100359.91;5023851;28;20332;-51
2023/07/01 09:21:01;;;;;;;1.67;0.70;;;;;;;21.89;65.44;100358.88;5018817;28;20480;-50
2023/07/01 09:23:35;;;;;;;0.80;0.70;;;;;;;21.90;64.90;100360.56;5017483;28;20041;-51
2023/07/01 09:26:13;;;;;;;0.75;0.50;;;;;;;21.89;65.09;100356.16;5025404;28;20556;-51
2023/07/01 09:28:53;;;;;;;1.63;0.40;;;;;;;21.85;65.63;100361.94;5022317;28;20586;-51
2023/07/01 09:31:18;;;;;;;2.25;0.60;;;;;;;21.85;65.81;100353.81;5018114;28;20476;-50
2023/07/01 09:34:05;;;;;;;0.55;0.50;;;;;;;21.86;65.36;100352.81;5025287;28;20040;-52
2023/07/01 09:36:32;;;;;;;0.63;0.60;;;;;;;21.86;65.57;100350.09;5023915;28;20037;-51
2023/07/01 09:38:57;;;;;;;0.40;0.40;;;;;;;21.87;65.81;100345.50;5023144;28;20463;-52
2023/07/01 09:41:26;;;;;;;0.40;0.40;;;;;;;21.87;66.17;100353.63;5015222;28;20029;-52
2023/07/01 09:43:53;;;;;;;1.35;0.63;;;;;;;21.89;66.22;100348.88;5019154;28;20022;-51
2023/07/01 09:46:18;;;;;;;0.40;0.40;;;;;;;21.88;66.91;100341.78;5022385;28;20104;-52
2023/07/01 09:48:52;;;;;;;0.40;0.40;;;;;;;21.86;66.81;100335.72;5020749;28;20029;-52
2023/07/01 09:51:18;;;;;;;0.63;0.55;;;;;;;21.86;66.73;100346.53;5017481;28;20495;-52
2023/07/01 09:53:43;;;;;;;0.40;0.40;;;;;;;21.85;66.66;100342.97;5016687;28;20091;-50
2023/07/01 09:56:12;;;;;;;2.42;0.80;;;;;;;21.83;66.61;100347.75;5017958;28;20026;-52
2023/07/01 09:58:39;;;;;;;0.40;0.40;;;;;;;21.83;66.84;100344.19;5014195;28;20079;-52
2023/07/01 10:01:04;;;;;;;0.50;0.50;;;;;;;21.82;67.47;100343.34;5017678;28;20068;-51
2023/07/01 10:03:30;;;;;;;0.50;0.50;;;;;;;21.81;67.54;100344.38;5016078;28;20049;-51
2023/07/01 10:05:55;;;;;;;2.35;0.50;;;;;;;21.82;66.99;100340.66;5020921;28;20032;-51
2023/07/01 10:08:21;;;;;;;0.60;0.38;;;;;;;21.80;67.62;100342.69;5019044;28;20050;-51
2023/07/01 10:11:05;;;;;;;1.35;0.60;;;;;;;21.82;67.18;100339.81;5020028;28;20053;-51
2023/07/01 10:13:37;;;;;;;2.70;0.50;;;;;;;21.81;67.18;100338.13;5020171;28;20495;-49
2023/07/01 10:16:04;;;;;;;2.83;0.50;;;;;;;21.83;67.06;100331.47;5019186;28;20160;-47
2023/07/01 10:18:30;;;;;;;4.43;0.50;;;;;;;21.84;67.10;100333.16;5021619;28;20136;-47
2023/07/01 10:21:26;;;;;;;1.73;0.40;;;;;;;21.88;66.32;100332.81;5024166;28;20123;-49
2023/07/01 10:23:52;;;;;;;4.32;0.60;;;;;;;21.90;66.74;100333.47;5017103;28;20029;-47
2023/07/01 10:26:49;;;;;;;6.20;0.60;;;;;;;21.93;65.89;100320.38;5019855;28;20018;-47
2023/07/01 10:29:30;;;;;;;2.70;0.32;;;;;;;21.95;66.05;100331.03;5019890;28;20044;-48
2023/07/01 10:32:13;;;;;;;5.28;0.73;;;;;;;21.96;66.21;100324.59;5021571;28;20034;-50
2023/07/01 10:34:53;;;;;;;1.52;0.40;;;;;;;21.95;65.86;100322.91;5017330;28;20567;-47
2023/07/01 10:37:21;;;;;;;3.43;0.30;;;;;;;21.96;66.08;100324.59;5020950;28;20029;-48
2023/07/01 10:39:47;;;;;;;0.40;0.35;;;;;;;21.96;66.17;100324.59;5019871;28;20544;-47
2023/07/01 10:42:34;;;;;;;0.32;0.32;;;;;;;21.98;66.09;100326.06;5019954;28;20140;-49
2023/07/01 10:45:12;;;;;;;0.80;0.43;;;;;;;21.99;65.73;100329.63;5017950;28;20037;-46
2023/07/01 10:47:44;;;;;;;0.75;0.40;;;;;;;21.97;66.12;100320.84;5016733;28;20025;-47
2023/07/01 10:50:12;;;;;;;3.22;0.50;;;;;;;21.99;66.04;100321.50;5019915;28;20037;-46
2023/07/01 10:52:56;;;;;;;0.35;0.35;;;;;;;22.00;65.90;100325.91;5020865;28;20096;-47
2023/07/01 10:55:43;;;;;;;1.05;0.38;;;;;;;22.00;65.91;100320.47;5019672;28;20044;-49
2023/07/01 10:58:28;;;;;;;0.90;0.60;;;;;;;21.99;66.66;100316.94;5020526;28;20502;-50
2023/07/01 11:00:57;;;;;;;1.67;0.68;;;;;;;21.99;66.59;100314.22;5021467;28;20037;-49
2023/07/01 11:03:35;;;;;;;0.90;0.60;;;;;;;22.02;66.07;100321.13;5017768;28;20157;-46
2023/07/01 11:06:01;;;;;;;1.58;0.85;;;;;;;22.02;67.04;100316.53;5017663;28;20491;-47
2023/07/01 11:08:28;;;;;;;3.63;1.27;;;;;;;22.03;67.09;100317.41;5019955;28;20124;-49
2023/07/01 11:10:53;;;;;;;1.60;1.40;;;;;;;22.04;66.62;100319.06;5017937;28;20599;-46
2023/07/01 11:13:19;;;;;;;2.13;1.40;;;;;;;22.05;66.83;100318.06;5022016;28;20483;-48
2023/07/01 11:16:05;;;;;;;3.45;1.98;;;;;;;22.08;66.05;100319.53;5017674;28;20033;-47
2023/07/01 11:18:45;;;;;;;3.60;1.63;;;;;;;22.08;66.42;100317.66;5029261;28;20018;-49
2023/07/01 11:21:12;;;;;;;4.15;2.10;;;;;;;22.09;66.67;100310.41;5017534;28;20054;-47
2023/07/01 11:23:42;;;;;;;2.97;1.80;;;;;;;22.09;66.81;100311.22;5021977;28;20514;-47
2023/07/01 11:26:08;;;;;;;3.30;2.47;;;;;;;22.10;66.45;100310.19;5019449;28;20030;-48